sensor_id;sensor_type;location;lat;lon;timestamp;pressure;altitude;pressure_sealevel;temperature;humidity
15646;BME280;7922;43.622;1.476;2023-07-08T00:00:18;99976.22;;;18.40;100.00
15646;BME280;7922;43.622;1.476;2023-07-08T00:02:44;99972.56;;;18.41;100.00
15646;BME280;7922;43.622;1.476;2023-07-08T00:05:11;99944.13;;;18.27;100.00
15646;BME280;7922;43.622;1.476;2023-07-08T00:07:37;99900.03;;;18.07;100.00
15646;BME280;7922;43.622;1.476;2023-07-08T00:12:43;99912.22;;;18.11;100.00
15646;BME280;7922;43.622;1.476;2023-07-08T00:15:10;99958.84;;;18.45;100.00
15646;BME280;7922;43.622;1.476;2023-07-08T00:17:35;99937.22;;;18.36;100.00
15646;BME280;7922;43.622;1.476;2023-07-08T00:20:01;99894.66;;;18.07;100.00
15646;BME280;7922;43.622;1.476;2023-07-08T00:22:26;99871.47;;;17.95;100.00
15646;BME280;7922;43.622;1.476;2023-07-08T00:24:53;99883.53;;;18.00;100.00
15646;BME280;7922;43.622;1.476;2023-07-08T00:27:18;99878.19;;;18.00;100.00
15646;BME280;7922;43.622;1.476;2023-07-08T00:29:44;99920.31;;;18.22;100.00
15646;BME280;7922;43.622;1.476;2023-07-08T00:32:12;99932.81;;;18.35;100.00
15646;BME280;7922;43.622;1.476;2023-07-08T00:34:38;99876.97;;;18.04;100.00
15646;BME280;7922;43.622;1.476;2023-07-08T00:37:03;99897.41;;;18.18;100.00
15646;BME280;7922;43.622;1.476;2023-07-08T00:39:29;99845.66;;;17.94;100.00
15646;BME280;7922;43.622;1.476;2023-07-08T00:41:54;99881.03;;;18.10;100.00
15646;BME280;7922;43.622;1.476;2023-07-08T00:44:20;99895.97;;;18.25;100.00
15646;BME280;7922;43.622;1.476;2023-07-08T00:47:05;99912.22;;;18.35;100.00
15646;BME280;7922;43.622;1.476;2023-07-08T00:50:00;99853.75;;;18.05;100.00
15646;BME280;7922;43.622;1.476;2023-07-08T00:52:28;99915.00;;;18.34;100.00
15646;BME280;7922;43.622;1.476;2023-07-08T00:54:56;99865.94;;;18.09;100.00
15646;BME280;7922;43.622;1.476;2023-07-08T00:57:25;99887.06;;;18.25;100.00
15646;BME280;7922;43.622;1.476;2023-07-08T01:02:20;99862.03;;;18.13;100.00
15646;BME280;7922;43.622;1.476;2023-07-08T01:04:59;99831.91;;;17.98;100.00
15646;BME280;7922;43.622;1.476;2023-07-08T01:07:26;99875.00;;;18.19;100.00
15646;BME280;7922;43.622;1.476;2023-07-08T01:09:57;99870.50;;;18.20;100.00
15646;BME280;7922;43.622;1.476;2023-07-08T01:12:33;99858.91;;;18.19;100.00
15646;BME280;7922;43.622;1.476;2023-07-08T01:15:01;99830.06;;;17.99;100.00
15646;BME280;7922;43.622;1.476;2023-07-08T01:17:28;99882.31;;;18.28;100.00
15646;BME280;7922;43.622;1.476;2023-07-08T01:19:53;99849.38;;;18.15;100.00
15646;BME280;7922;43.622;1.476;2023-07-08T01:22:18;99860.38;;;18.23;100.00
15646;BME280;7922;43.622;1.476;2023-07-08T01:24:44;99885.03;;;18.40;100.00
15646;BME280;7922;43.622;1.476;2023-07-08T01:27:14;99828.41;;;18.09;100.00
15646;BME280;7922;43.622;1.476;2023-07-08T01:29:40;99810.94;;;18.03;100.00
15646;BME280;7922;43.622;1.476;2023-07-08T01:32:05;99872.25;;;18.43;100.00
15646;BME280;7922;43.622;1.476;2023-07-08T01:34:32;99866.41;;;18.38;100.00
15646;BME280;7922;43.622;1.476;2023-07-08T01:36:59;99861.88;;;18.39;100.00
15646;BME280;7922;43.622;1.476;2023-07-08T01:39:29;99814.47;;;18.04;100.00
15646;BME280;7922;43.622;1.476;2023-07-08T01:41:56;99807.19;;;18.06;100.00
15646;BME280;7922;43.622;1.476;2023-07-08T01:44:27;99879.00;;;18.49;100.00
15646;BME280;7922;43.622;1.476;2023-07-08T01:46:54;99854.06;;;18.36;100.00
15646;BME280;7922;43.622;1.476;2023-07-08T01:49:20;99815.41;;;18.16;100.00
15646;BME280;7922;43.622;1.476;2023-07-08T01:51:47;99817.19;;;18.15;100.00
15646;BME280;7922;43.622;1.476;2023-07-08T01:54:13;99849.19;;;18.41;100.00
15646;BME280;7922;43.622;1.476;2023-07-08T01:56:39;99849.19;;;18.41;100.00
15646;BME280;7922;43.622;1.476;2023-07-08T01:59:04;99808.69;;;18.21;100.00
15646;BME280;7922;43.622;1.476;2023-07-08T02:01:29;99861.53;;;18.55;100.00
15646;BME280;7922;43.622;1.476;2023-07-08T02:03:54;99831.63;;;18.37;100.00
15646;BME280;7922;43.622;1.476;2023-07-08T02:06:20;99802.59;;;18.19;100.00
15646;BME280;7922;43.622;1.476;2023-07-08T02:08:45;99834.31;;;18.37;100.00
15646;BME280;7922;43.622;1.476;2023-07-08T02:11:10;99835.69;;;18.42;100.00
15646;BME280;7922;43.622;1.476;2023-07-08T02:13:35;99815.28;;;18.28;100.00
15646;BME280;7922;43.622;1.476;2023-07-08T02:16:01;99844.84;;;18.51;100.00
15646;BME280;7922;43.622;1.476;2023-07-08T02:18:26;99849.13;;;18.53;100.00
15646;BME280;7922;43.622;1.476;2023-07-08T02:20:51;99830.19;;;18.44;100.00
15646;BME280;7922;43.622;1.476;2023-07-08T02:23:17;99852.03;;;18.50;100.00
15646;BME280;7922;43.622;1.476;2023-07-08T02:25:53;99846.66;;;18.50;100.00
15646;BME280;7922;43.622;1.476;2023-07-08T02:28:19;99852.66;;;18.54;100.00
15646;BME280;7922;43.622;1.476;2023-07-08T02:30:45;99869.38;;;18.69;100.00
15646;BME280;7922;43.622;1.476;2023-07-08T02:33:10;99877.09;;;18.73;100.00
15646;BME280;7922;43.622;1.476;2023-07-08T02:35:35;99864.66;;;18.72;100.00
15646;BME280;7922;43.622;1.476;2023-07-08T02:38:01;99872.72;;;18.72;100.00
15646;BME280;7922;43.622;1.476;2023-07-08T02:40:26;99824.50;;;18.48;100.00
15646;BME280;7922;43.622;1.476;2023-07-08T02:42:51;99818.59;;;18.43;100.00
15646;BME280;7922;43.622;1.476;2023-07-08T02:45:17;99797.53;;;18.39;100.00
15646;BME280;7922;43.622;1.476;2023-07-08T02:47:43;99843.41;;;18.69;100.00
15646;BME280;7922;43.622;1.476;2023-07-08T02:50:10;99810.09;;;18.49;100.00
15646;BME280;7922;43.622;1.476;2023-07-08T02:52:35;99875.31;;;18.85;100.00
15646;BME280;7922;43.622;1.476;2023-07-08T02:55:01;99793.38;;;18.46;100.00
15646;BME280;7922;43.622;1.476;2023-07-08T02:57:26;99837.97;;;18.71;100.00
15646;BME280;7922;43.622;1.476;2023-07-08T02:59:52;99848.31;;;18.87;100.00
15646;BME280;7922;43.622;1.476;2023-07-08T03:02:17;99868.59;;;19.02;100.00
15646;BME280;7922;43.622;1.476;2023-07-08T03:04:42;99840.03;;;18.90;100.00
15646;BME280;7922;43.622;1.476;2023-07-08T03:07:08;99817.81;;;18.76;100.00
15646;BME280;7922;43.622;1.476;2023-07-08T03:09:34;99795.63;;;18.74;100.00
15646;BME280;7922;43.622;1.476;2023-07-08T03:11:59;99849.91;;;19.12;100.00
15646;BME280;7922;43.622;1.476;2023-07-08T03:14:24;99802.59;;;18.88;100.00
15646;BME280;7922;43.622;1.476;2023-07-08T03:16:50;99788.81;;;18.82;100.00
15646;BME280;7922;43.622;1.476;2023-07-08T03:19:15;99792.09;;;18.85;100.00
15646;BME280;7922;43.622;1.476;2023-07-08T03:21:41;99831.88;;;19.14;100.00
15646;BME280;7922;43.622;1.476;2023-07-08T03:24:12;99847.97;;;19.25;100.00
15646;BME280;7922;43.622;1.476;2023-07-08T03:26:38;99856.97;;;19.35;100.00
15646;BME280;7922;43.622;1.476;2023-07-08T03:29:04;99802.22;;;19.04;100.00
15646;BME280;7922;43.622;1.476;2023-07-08T03:31:29;99859.91;;;19.43;100.00
15646;BME280;7922;43.622;1.476;2023-07-08T03:33:54;99851.25;;;19.40;100.00
15646;BME280;7922;43.622;1.476;2023-07-08T03:36:20;99849.50;;;19.39;100.00
15646;BME280;7922;43.622;1.476;2023-07-08T03:38:45;99794.38;;;19.12;100.00
15646;BME280;7922;43.622;1.476;2023-07-08T03:41:10;99831.09;;;19.34;100.00
15646;BME280;7922;43.622;1.476;2023-07-08T03:43:35;99841.34;;;19.40;100.00
15646;BME280;7922;43.622;1.476;2023-07-08T03:46:01;99818.41;;;19.25;100.00
15646;BME280;7922;43.622;1.476;2023-07-08T03:48:26;99855.00;;;19.48;100.00
15646;BME280;7922;43.622;1.476;2023-07-08T03:50:51;99835.97;;;19.40;100.00
15646;BME280;7922;43.622;1.476;2023-07-08T03:53:16;99803.16;;;19.26;100.00
15646;BME280;7922;43.622;1.476;2023-07-08T03:55:42;99820.47;;;19.33;100.00
15646;BME280;7922;43.622;1.476;2023-07-08T03:58:07;99881.50;;;19.64;100.00
15646;BME280;7922;43.622;1.476;2023-07-08T04:00:32;99852.31;;;19.48;100.00
15646;BME280;7922;43.622;1.476;2023-07-08T04:02:57;99859.75;;;19.56;100.00
15646;BME280;7922;43.622;1.476;2023-07-08T04:05:23;99850.13;;;19.42;100.00
15646;BME280;7922;43.622;1.476;2023-07-08T04:07:48;99846.09;;;19.37;100.00
15646;BME280;7922;43.622;1.476;2023-07-08T04:10:15;99901.66;;;19.70;100.00
15646;BME280;7922;43.622;1.476;2023-07-08T04:12:41;99873.41;;;19.53;100.00
15646;BME280;7922;43.622;1.476;2023-07-08T04:15:10;99834.38;;;19.38;100.00
15646;BME280;7922;43.622;1.476;2023-07-08T04:17:43;99872.56;;;19.64;100.00
15646;BME280;7922;43.622;1.476;2023-07-08T04:20:10;99848.53;;;19.51;100.00
15646;BME280;7922;43.622;1.476;2023-07-08T04:22:35;99850.13;;;19.54;100.00
15646;BME280;7922;43.622;1.476;2023-07-08T04:25:00;99884.53;;;19.71;100.00
15646;BME280;7922;43.622;1.476;2023-07-08T04:27:26;99879.41;;;19.68;100.00
15646;BME280;7922;43.622;1.476;2023-07-08T04:29:51;99884.66;;;19.69;100.00
15646;BME280;7922;43.622;1.476;2023-07-08T04:32:16;99866.50;;;19.51;100.00
15646;BME280;7922;43.622;1.476;2023-07-08T04:34:41;99853.78;;;19.41;100.00
15646;BME280;7922;43.622;1.476;2023-07-08T04:37:09;99911.78;;;19.66;100.00
15646;BME280;7922;43.622;1.476;2023-07-08T04:39:36;99893.59;;;19.47;100.00
15646;BME280;7922;43.622;1.476;2023-07-08T04:42:01;99927.28;;;19.74;100.00
15646;BME280;7922;43.622;1.476;2023-07-08T04:44:26;99921.91;;;19.74;100.00
15646;BME280;7922;43.622;1.476;2023-07-08T04:46:54;99874.56;;;19.51;100.00
15646;BME280;7922;43.622;1.476;2023-07-08T04:49:22;99876.72;;;19.57;100.00
15646;BME280;7922;43.622;1.476;2023-07-08T04:51:47;99920.66;;;19.89;100.00
15646;BME280;7922;43.622;1.476;2023-07-08T04:54:12;99866.09;;;19.66;100.00
15646;BME280;7922;43.622;1.476;2023-07-08T04:56:46;99922.34;;;20.02;100.00
15646;BME280;7922;43.622;1.476;2023-07-08T04:59:14;99921.72;;;20.09;100.00
15646;BME280;7922;43.622;1.476;2023-07-08T05:01:40;99870.56;;;19.88;100.00
15646;BME280;7922;43.622;1.476;2023-07-08T05:04:06;99851.88;;;19.87;100.00
15646;BME280;7922;43.622;1.476;2023-07-08T05:06:32;99912.88;;;20.18;99.54
15646;BME280;7922;43.622;1.476;2023-07-08T05:08:58;99839.53;;;19.84;99.49
15646;BME280;7922;43.622;1.476;2023-07-08T05:11:24;99891.34;;;20.18;99.12
15646;BME280;7922;43.622;1.476;2023-07-08T05:13:50;99894.25;;;20.27;98.90
15646;BME280;7922;43.622;1.476;2023-07-08T05:16:15;99899.25;;;20.31;98.97
15646;BME280;7922;43.622;1.476;2023-07-08T05:18:41;99849.22;;;20.08;99.01
15646;BME280;7922;43.622;1.476;2023-07-08T05:21:06;99927.31;;;20.50;99.12
15646;BME280;7922;43.622;1.476;2023-07-08T05:23:31;99866.81;;;20.12;99.08
15646;BME280;7922;43.622;1.476;2023-07-08T05:26:00;99918.75;;;20.44;99.43
15646;BME280;7922;43.622;1.476;2023-07-08T05:28:25;99865.94;;;20.11;99.78
15646;BME280;7922;43.622;1.476;2023-07-08T05:30:54;99884.00;;;20.20;99.68
15646;BME280;7922;43.622;1.476;2023-07-08T05:33:20;99912.25;;;20.47;99.74
15646;BME280;7922;43.622;1.476;2023-07-08T05:35:45;99952.28;;;20.73;99.66
15646;BME280;7922;43.622;1.476;2023-07-08T05:38:11;99882.84;;;20.34;100.00
15646;BME280;7922;43.622;1.476;2023-07-08T05:40:36;99924.44;;;20.62;100.00
15646;BME280;7922;43.622;1.476;2023-07-08T05:43:01;99890.97;;;20.55;100.00
15646;BME280;7922;43.622;1.476;2023-07-08T05:45:26;99945.22;;;21.02;99.89
15646;BME280;7922;43.622;1.476;2023-07-08T05:47:52;99864.88;;;20.77;99.06
15646;BME280;7922;43.622;1.476;2023-07-08T05:50:17;99923.81;;;21.22;97.74
15646;BME280;7922;43.622;1.476;2023-07-08T05:52:42;99931.28;;;21.39;97.19
15646;BME280;7922;43.622;1.476;2023-07-08T05:55:08;99941.13;;;21.59;96.86
15646;BME280;7922;43.622;1.476;2023-07-08T05:57:33;99957.56;;;21.87;95.93
15646;BME280;7922;43.622;1.476;2023-07-08T05:59:58;99929.97;;;21.74;94.80
15646;BME280;7922;43.622;1.476;2023-07-08T06:02:24;99914.91;;;21.71;94.63
15646;BME280;7922;43.622;1.476;2023-07-08T06:04:49;99935.44;;;22.03;94.24
15646;BME280;7922;43.622;1.476;2023-07-08T06:07:14;99952.69;;;22.31;94.07
15646;BME280;7922;43.622;1.476;2023-07-08T06:09:39;99876.63;;;21.97;92.47
15646;BME280;7922;43.622;1.476;2023-07-08T06:12:05;99916.91;;;22.19;92.80
15646;BME280;7922;43.622;1.476;2023-07-08T06:14:30;99946.88;;;22.55;92.41
15646;BME280;7922;43.622;1.476;2023-07-08T06:16:58;99929.38;;;22.49;91.42
15646;BME280;7922;43.622;1.476;2023-07-08T06:19:23;99897.97;;;22.29;91.16
15646;BME280;7922;43.622;1.476;2023-07-08T06:21:49;99941.16;;;22.58;90.82
15646;BME280;7922;43.622;1.476;2023-07-08T06:24:14;99911.47;;;22.58;90.90
15646;BME280;7922;43.622;1.476;2023-07-08T06:26:39;99967.16;;;22.98;90.53
15646;BME280;7922;43.622;1.476;2023-07-08T06:29:05;99912.59;;;22.75;88.66
15646;BME280;7922;43.622;1.476;2023-07-08T06:31:30;99913.09;;;23.08;87.61
15646;BME280;7922;43.622;1.476;2023-07-08T06:33:55;99966.94;;;23.66;87.00
15646;BME280;7922;43.622;1.476;2023-07-08T06:36:21;99979.13;;;24.07;85.50
15646;BME280;7922;43.622;1.476;2023-07-08T06:38:46;99979.13;;;24.07;84.58
15646;BME280;7922;43.622;1.476;2023-07-08T06:41:11;99959.13;;;23.72;85.08
15646;BME280;7922;43.622;1.476;2023-07-08T06:43:37;99921.69;;;23.30;86.59
15646;BME280;7922;43.622;1.476;2023-07-08T06:46:02;99963.50;;;23.36;87.00
15646;BME280;7922;43.622;1.476;2023-07-08T06:48:27;99990.69;;;23.35;88.78
15646;BME280;7922;43.622;1.476;2023-07-08T06:50:54;99971.34;;;23.39;87.77
15646;BME280;7922;43.622;1.476;2023-07-08T06:53:19;99950.75;;;23.56;86.46
15646;BME280;7922;43.622;1.476;2023-07-08T06:55:45;99933.94;;;23.62;85.75
15646;BME280;7922;43.622;1.476;2023-07-08T06:58:10;99965.97;;;23.94;84.50
15646;BME280;7922;43.622;1.476;2023-07-08T07:00:35;99984.91;;;23.94;83.75
15646;BME280;7922;43.622;1.476;2023-07-08T07:03:01;99976.28;;;24.09;84.53
15646;BME280;7922;43.622;1.476;2023-07-08T07:05:26;99913.25;;;23.98;83.50
15646;BME280;7922;43.622;1.476;2023-07-08T07:07:51;99988.16;;;24.43;83.27
15646;BME280;7922;43.622;1.476;2023-07-08T07:10:17;99942.97;;;24.26;82.12
15646;BME280;7922;43.622;1.476;2023-07-08T07:12:42;99968.91;;;24.64;81.98
15646;BME280;7922;43.622;1.476;2023-07-08T07:15:07;99904.09;;;24.45;80.02
15646;BME280;7922;43.622;1.476;2023-07-08T07:17:33;99985.47;;;25.05;79.22
15646;BME280;7922;43.622;1.476;2023-07-08T07:19:58;100007.44;;;25.12;78.39
15646;BME280;7922;43.622;1.476;2023-07-08T07:22:23;99960.25;;;25.05;78.46
15646;BME280;7922;43.622;1.476;2023-07-08T07:24:49;100006.97;;;25.42;77.32
15646;BME280;7922;43.622;1.476;2023-07-08T07:27:14;99972.44;;;25.27;77.10
15646;BME280;7922;43.622;1.476;2023-07-08T07:29:45;99999.25;;;25.30;75.61
15646;BME280;7922;43.622;1.476;2023-07-08T07:32:12;100007.53;;;25.54;75.57
15646;BME280;7922;43.622;1.476;2023-07-08T07:34:38;100002.25;;;25.53;75.64
15646;BME280;7922;43.622;1.476;2023-07-08T07:37:05;100019.97;;;25.65;75.18
15646;BME280;7922;43.622;1.476;2023-07-08T07:39:30;99922.94;;;24.98;74.47
15646;BME280;7922;43.622;1.476;2023-07-08T07:41:55;99991.09;;;25.56;74.18
15646;BME280;7922;43.622;1.476;2023-07-08T07:44:21;99973.66;;;25.58;74.53
15646;BME280;7922;43.622;1.476;2023-07-08T07:46:46;100038.38;;;26.22;74.03
15646;BME280;7922;43.622;1.476;2023-07-08T07:49:11;100018.69;;;26.11;72.35
15646;BME280;7922;43.622;1.476;2023-07-08T07:51:37;100018.88;;;26.18;71.75
15646;BME280;7922;43.622;1.476;2023-07-08T07:54:02;100038.66;;;26.45;69.95
15646;BME280;7922;43.622;1.476;2023-07-08T07:56:27;99977.47;;;26.32;69.58
15646;BME280;7922;43.622;1.476;2023-07-08T07:58:52;99988.94;;;26.52;69.05
15646;BME280;7922;43.622;1.476;2023-07-08T08:01:18;99998.88;;;26.35;69.79
15646;BME280;7922;43.622;1.476;2023-07-08T08:03:43;100010.44;;;26.37;71.02
15646;BME280;7922;43.622;1.476;2023-07-08T08:06:08;100016.97;;;26.53;70.06
15646;BME280;7922;43.622;1.476;2023-07-08T08:08:34;99969.06;;;26.52;70.26
15646;BME280;7922;43.622;1.476;2023-07-08T08:10:59;100001.34;;;26.63;69.25
15646;BME280;7922;43.622;1.476;2023-07-08T08:13:25;99980.28;;;26.57;68.07
15646;BME280;7922;43.622;1.476;2023-07-08T08:15:59;99969.00;;;26.35;68.64
15646;BME280;7922;43.622;1.476;2023-07-08T08:18:24;100006.13;;;26.69;69.17
15646;BME280;7922;43.622;1.476;2023-07-08T08:20:50;99989.13;;;26.75;69.93
15646;BME280;7922;43.622;1.476;2023-07-08T08:23:16;100020.03;;;27.07;69.46
15646;BME280;7922;43.622;1.476;2023-07-08T08:25:41;100017.50;;;27.05;68.49
15646;BME280;7922;43.622;1.476;2023-07-08T08:28:06;100022.97;;;27.22;67.53
15646;BME280;7922;43.622;1.476;2023-07-08T08:30:32;99961.78;;;26.60;67.02
15646;BME280;7922;43.622;1.476;2023-07-08T08:32:57;100012.56;;;26.68;67.82
15646;BME280;7922;43.622;1.476;2023-07-08T08:35:22;100008.03;;;26.26;70.10
15646;BME280;7922;43.622;1.476;2023-07-08T08:37:48;99976.81;;;26.30;68.45
15646;BME280;7922;43.622;1.476;2023-07-08T08:40:16;100034.66;;;26.89;68.61
15646;BME280;7922;43.622;1.476;2023-07-08T08:43:02;100004.25;;;26.78;67.08
15646;BME280;7922;43.622;1.476;2023-07-08T08:45:34;100031.78;;;27.07;67.02
15646;BME280;7922;43.622;1.476;2023-07-08T08:48:03;99984.38;;;26.77;65.45
15646;BME280;7922;43.622;1.476;2023-07-08T08:50:33;100026.84;;;27.03;66.19
15646;BME280;7922;43.622;1.476;2023-07-08T08:53:01;99991.16;;;26.98;65.78
15646;BME280;7922;43.622;1.476;2023-07-08T08:55:28;100003.22;;;26.95;64.84
15646;BME280;7922;43.622;1.476;2023-07-08T08:58:40;100055.75;;;27.28;65.33
15646;BME280;7922;43.622;1.476;2023-07-08T09:00:56;100026.88;;;27.27;65.60
15646;BME280;7922;43.622;1.476;2023-07-08T09:06:21;100024.78;;;27.38;64.29
15646;BME280;7922;43.622;1.476;2023-07-08T09:08:49;99986.91;;;27.28;63.99
15646;BME280;7922;43.622;1.476;2023-07-08T09:13:49;99995.25;;;27.34;63.70
15646;BME280;7922;43.622;1.476;2023-07-08T09:19:15;100002.97;;;27.62;62.54
15646;BME280;7922;43.622;1.476;2023-07-08T09:21:53;100044.19;;;28.06;62.27
15646;BME280;7922;43.622;1.476;2023-07-08T09:24:48;100071.66;;;28.28;62.00
15646;BME280;7922;43.622;1.476;2023-07-08T09:27:14;100026.84;;;27.99;61.18
15646;BME280;7922;43.622;1.476;2023-07-08T09:29:40;100056.56;;;28.25;61.63
15646;BME280;7922;43.622;1.476;2023-07-08T09:32:16;100075.38;;;28.35;61.34
15646;BME280;7922;43.622;1.476;2023-07-08T09:34:52;100072.97;;;28.48;61.64
15646;BME280;7922;43.622;1.476;2023-07-08T09:39:48;100082.50;;;28.75;60.47
15646;BME280;7922;43.622;1.476;2023-07-08T09:42:13;100095.13;;;28.76;60.37
15646;BME280;7922;43.622;1.476;2023-07-08T09:44:40;100046.22;;;28.52;59.41
15646;BME280;7922;43.622;1.476;2023-07-08T09:47:21;100080.69;;;28.99;60.79
15646;BME280;7922;43.622;1.476;2023-07-08T09:49:48;100090.00;;;29.27;59.45
15646;BME280;7922;43.622;1.476;2023-07-08T09:52:13;100092.09;;;29.40;58.30
15646;BME280;7922;43.622;1.476;2023-07-08T09:54:41;100108.94;;;29.44;58.09
15646;BME280;7922;43.622;1.476;2023-07-08T09:57:18;100101.50;;;29.61;57.33
15646;BME280;7922;43.622;1.476;2023-07-08T09:59:48;100043.38;;;29.14;57.09
15646;BME280;7922;43.622;1.476;2023-07-08T10:05:10;100104.81;;;29.71;57.59
15646;BME280;7922;43.622;1.476;2023-07-08T10:07:37;100089.28;;;29.86;58.24
15646;BME280;7922;43.622;1.476;2023-07-08T10:10:08;100082.78;;;29.87;56.81
15646;BME280;7922;43.622;1.476;2023-07-08T10:12:38;100039.56;;;29.76;58.58
15646;BME280;7922;43.622;1.476;2023-07-08T10:17:53;100053.56;;;29.73;56.66
15646;BME280;7922;43.622;1.476;2023-07-08T10:20:20;100091.63;;;29.74;56.10
15646;BME280;7922;43.622;1.476;2023-07-08T10:23:21;100054.25;;;29.60;55.45
15646;BME280;7922;43.622;1.476;2023-07-08T10:26:06;100098.41;;;29.79;57.57
15646;BME280;7922;43.622;1.476;2023-07-08T10:31:16;100025.50;;;29.12;55.90
15646;BME280;7922;43.622;1.476;2023-07-08T10:37:04;100038.09;;;29.50;55.67
15646;BME280;7922;43.622;1.476;2023-07-08T10:50:19;100098.50;;;30.44;55.64
15646;BME280;7922;43.622;1.476;2023-07-08T10:53:14;100099.81;;;30.49;54.92
15646;BME280;7922;43.622;1.476;2023-07-08T11:01:23;100111.09;;;30.60;53.39
15646;BME280;7922;43.622;1.476;2023-07-08T11:06:57;100102.63;;;30.55;51.73
15646;BME280;7922;43.622;1.476;2023-07-08T11:09:33;100076.09;;;30.34;51.38
15646;BME280;7922;43.622;1.476;2023-07-08T11:12:05;100065.66;;;30.23;53.71
15646;BME280;7922;43.622;1.476;2023-07-08T11:14:44;100058.13;;;30.25;52.22
15646;BME280;7922;43.622;1.476;2023-07-08T11:17:22;100090.22;;;30.38;52.82
15646;BME280;7922;43.622;1.476;2023-07-08T11:20:02;100101.91;;;30.83;54.78
15646;BME280;7922;43.622;1.476;2023-07-08T11:22:30;100095.16;;;31.00;52.75
15646;BME280;7922;43.622;1.476;2023-07-08T11:24:59;100089.66;;;30.79;52.80
15646;BME280;7922;43.622;1.476;2023-07-08T11:27:30;99942.25;;;29.90;51.51
15646;BME280;7922;43.622;1.476;2023-07-08T11:30:13;100052.66;;;30.83;51.82
15646;BME280;7922;43.622;1.476;2023-07-08T11:32:42;100090.00;;;31.12;51.82
15646;BME280;7922;43.622;1.476;2023-07-08T11:35:19;100078.09;;;31.20;51.57
15646;BME280;7922;43.622;1.476;2023-07-08T11:37:46;100070.75;;;30.99;51.51
15646;BME280;7922;43.622;1.476;2023-07-08T11:40:20;100095.75;;;31.17;51.35
15646;BME280;7922;43.622;1.476;2023-07-08T11:42:50;100027.06;;;30.69;51.19
15646;BME280;7922;43.622;1.476;2023-07-08T11:45:38;100095.09;;;31.15;50.51
15646;BME280;7922;43.622;1.476;2023-07-08T11:50:38;100081.59;;;30.92;49.95
15646;BME280;7922;43.622;1.476;2023-07-08T11:53:11;100092.09;;;31.10;50.71
15646;BME280;7922;43.622;1.476;2023-07-08T11:58:06;100074.03;;;31.37;49.60
15646;BME280;7922;43.622;1.476;2023-07-08T12:00:33;100064.00;;;31.44;51.01
15646;BME280;7922;43.622;1.476;2023-07-08T12:03:18;100050.00;;;31.32;49.54
15646;BME280;7922;43.622;1.476;2023-07-08T12:05:44;100074.59;;;31.54;48.79
15646;BME280;7922;43.622;1.476;2023-07-08T12:08:14;100035.13;;;31.42;49.06
15646;BME280;7922;43.622;1.476;2023-07-08T12:10:50;100068.66;;;31.78;47.88
15646;BME280;7922;43.622;1.476;2023-07-08T12:13:20;100069.63;;;31.92;48.69
15646;BME280;7922;43.622;1.476;2023-07-08T12:15:46;100028.31;;;31.65;47.56
15646;BME280;7922;43.622;1.476;2023-07-08T12:18:14;100056.66;;;31.79;47.09
15646;BME280;7922;43.622;1.476;2023-07-08T12:20:41;100031.84;;;31.53;47.41
15646;BME280;7922;43.622;1.476;2023-07-08T12:23:21;100050.00;;;31.60;47.52
15646;BME280;7922;43.622;1.476;2023-07-08T12:25:47;100046.78;;;31.50;48.34
15646;BME280;7922;43.622;1.476;2023-07-08T12:28:14;100055.56;;;31.74;49.17
15646;BME280;7922;43.622;1.476;2023-07-08T12:30:41;100059.78;;;31.76;48.43
15646;BME280;7922;43.622;1.476;2023-07-08T12:33:16;100047.19;;;31.82;48.55
15646;BME280;7922;43.622;1.476;2023-07-08T12:35:43;100067.78;;;32.06;47.67
15646;BME280;7922;43.622;1.476;2023-07-08T12:40:46;100021.75;;;31.88;47.29
15646;BME280;7922;43.622;1.476;2023-07-08T12:43:12;100069.72;;;32.12;46.11
15646;BME280;7922;43.622;1.476;2023-07-08T12:45:37;100022.19;;;31.92;47.23
15646;BME280;7922;43.622;1.476;2023-07-08T12:48:03;100042.53;;;32.10;46.88
15646;BME280;7922;43.622;1.476;2023-07-08T12:50:29;100018.44;;;31.99;46.39
15646;BME280;7922;43.622;1.476;2023-07-08T12:52:54;100053.50;;;32.17;46.88
15646;BME280;7922;43.622;1.476;2023-07-08T12:55:20;99993.97;;;31.98;46.95
15646;BME280;7922;43.622;1.476;2023-07-08T12:57:47;100045.38;;;32.37;46.85
15646;BME280;7922;43.622;1.476;2023-07-08T13:00:19;99990.72;;;32.29;46.68
15646;BME280;7922;43.622;1.476;2023-07-08T13:02:46;99999.81;;;32.36;46.66
15646;BME280;7922;43.622;1.476;2023-07-08T13:05:12;100015.84;;;32.32;46.52
15646;BME280;7922;43.622;1.476;2023-07-08T13:07:40;100006.09;;;32.23;45.96
15646;BME280;7922;43.622;1.476;2023-07-08T13:10:07;100031.31;;;32.53;46.80
15646;BME280;7922;43.622;1.476;2023-07-08T13:12:40;99990.34;;;32.45;46.15
15646;BME280;7922;43.622;1.476;2023-07-08T13:15:12;99994.09;;;32.38;45.03
15646;BME280;7922;43.622;1.476;2023-07-08T13:17:39;100010.22;;;32.54;45.15
15646;BME280;7922;43.622;1.476;2023-07-08T13:20:05;100049.53;;;32.81;43.74
15646;BME280;7922;43.622;1.476;2023-07-08T13:22:30;100007.47;;;32.60;45.17
15646;BME280;7922;43.622;1.476;2023-07-08T13:25:02;100029.69;;;32.72;44.08
15646;BME280;7922;43.622;1.476;2023-07-08T13:27:28;100037.72;;;32.87;44.11
15646;BME280;7922;43.622;1.476;2023-07-08T13:29:54;100012.13;;;32.47;44.23
15646;BME280;7922;43.622;1.476;2023-07-08T13:32:29;100053.78;;;32.97;44.86
15646;BME280;7922;43.622;1.476;2023-07-08T13:34:55;100002.41;;;32.51;45.06
15646;BME280;7922;43.622;1.476;2023-07-08T13:37:20;100041.50;;;32.79;45.06
15646;BME280;7922;43.622;1.476;2023-07-08T13:39:45;99988.88;;;32.49;44.31
15646;BME280;7922;43.622;1.476;2023-07-08T13:42:11;99985.75;;;32.59;43.95
15646;BME280;7922;43.622;1.476;2023-07-08T13:44:47;100035.81;;;32.88;44.04
15646;BME280;7922;43.622;1.476;2023-07-08T13:47:20;100002.63;;;32.63;43.85
15646;BME280;7922;43.622;1.476;2023-07-08T13:49:49;100034.75;;;32.82;44.72
15646;BME280;7922;43.622;1.476;2023-07-08T13:52:19;100043.22;;;33.00;44.51
15646;BME280;7922;43.622;1.476;2023-07-08T13:54:54;100035.16;;;32.86;43.26
15646;BME280;7922;43.622;1.476;2023-07-08T13:57:23;100008.78;;;32.65;44.35
15646;BME280;7922;43.622;1.476;2023-07-08T13:59:48;100006.84;;;32.52;43.06